sensor_id;sensor_type;location;lat;lon;timestamp;pressure;altitude;pressure_sealevel;temperature;humidity
37066;BME280;22981;43.080;25.550;2023-04-21T00:00:08;99114.53;;;11.19;86.39
37066;BME280;22981;43.080;25.550;2023-04-21T00:02:35;99113.19;;;11.19;86.42
37066;BME280;22981;43.080;25.550;2023-04-21T00:05:06;99110.72;;;11.17;86.42
37066;BME280;22981;43.080;25.550;2023-04-21T00:07:39;99112.91;;;11.18;86.43
37066;BME280;22981;43.080;25.550;2023-04-21T00:10:08;99113.47;;;11.20;86.38
37066;BME280;22981;43.080;25.550;2023-04-21T00:12:36;99112.06;;;11.17;86.31
37066;BME280;22981;43.080;25.550;2023-04-21T00:15:05;99105.32;;;11.15;86.40
37066;BME280;22981;43.080;25.550;2023-04-21T00:17:33;99102.11;;;11.15;86.44
37066;BME280;22981;43.080;25.550;2023-04-21T00:20:00;99094.36;;;11.16;86.46
37066;BME280;22981;43.080;25.550;2023-04-21T00:22:30;99094.36;;;11.16;86.34
37066;BME280;22981;43.080;25.550;2023-04-21T00:24:57;99094.25;;;11.11;86.34
37066;BME280;22981;43.080;25.550;2023-04-21T00:27:25;99088.36;;;11.12;86.42
37066;BME280;22981;43.080;25.550;2023-04-21T00:29:52;99088.12;;;11.13;86.45
37066;BME280;22981;43.080;25.550;2023-04-21T00:32:20;99089.45;;;11.13;86.45
37066;BME280;22981;43.080;25.550;2023-04-21T00:34:47;99086.20;;;11.11;86.56
37066;BME280;22981;43.080;25.550;2023-04-21T00:37:15;99083.81;;;11.12;86.56
37066;BME280;22981;43.080;25.550;2023-04-21T00:39:42;99076.30;;;11.12;86.55
37066;BME280;22981;43.080;25.550;2023-04-21T00:42:10;99074.23;;;11.14;86.50
37066;BME280;22981;43.080;25.550;2023-04-21T00:44:38;99075.33;;;11.15;86.47
37066;BME280;22981;43.080;25.550;2023-04-21T00:47:05;99078.53;;;11.15;86.48
37066;BME280;22981;43.080;25.550;2023-04-21T00:49:33;99075.56;;;11.14;86.56
37066;BME280;22981;43.080;25.550;2023-04-21T00:52:00;99077.41;;;11.13;86.57
37066;BME280;22981;43.080;25.550;2023-04-21T00:54:29;99072.05;;;11.13;86.57
37066;BME280;22981;43.080;25.550;2023-04-21T00:56:56;99068.27;;;11.12;86.56
37066;BME280;22981;43.080;25.550;2023-04-21T00:59:24;99071.76;;;11.12;86.59
37066;BME280;22981;43.080;25.550;2023-04-21T01:01:52;99066.19;;;11.14;86.67
37066;BME280;22981;43.080;25.550;2023-04-21T01:04:20;99068.63;;;11.15;86.63
37066;BME280;22981;43.080;25.550;2023-04-21T01:06:47;99068.91;;;11.16;86.62
37066;BME280;22981;43.080;25.550;2023-04-21T01:09:15;99067.05;;;11.17;86.63
37066;BME280;22981;43.080;25.550;2023-04-21T01:12:02;99066.75;;;11.16;86.62
37066;BME280;22981;43.080;25.550;2023-04-21T01:14:30;99064.01;;;11.13;86.63
37066;BME280;22981;43.080;25.550;2023-04-21T01:16:58;99057.80;;;11.10;86.61
37066;BME280;22981;43.080;25.550;2023-04-21T01:19:28;99059.14;;;11.10;86.70
37066;BME280;22981;43.080;25.550;2023-04-21T01:21:56;99063.36;;;11.09;86.79
37066;BME280;22981;43.080;25.550;2023-04-21T01:24:44;99064.14;;;11.07;86.83
37066;BME280;22981;43.080;25.550;2023-04-21T01:27:17;99067.27;;;11.03;86.86
37066;BME280;22981;43.080;25.550;2023-04-21T01:29:47;99066.98;;;11.02;86.79
37066;BME280;22981;43.080;25.550;2023-04-21T01:32:21;99065.36;;;11.01;86.80
37066;BME280;22981;43.080;25.550;2023-04-21T01:34:46;99065.65;;;11.02;86.83
37066;BME280;22981;43.080;25.550;2023-04-21T01:37:16;99062.38;;;11.00;86.87
37066;BME280;22981;43.080;25.550;2023-04-21T01:39:52;99062.69;;;11.01;86.90
37066;BME280;22981;43.080;25.550;2023-04-21T01:42:16;99064.55;;;11.01;86.86
37066;BME280;22981;43.080;25.550;2023-04-21T01:44:43;99059.20;;;11.01;86.86
37066;BME280;22981;43.080;25.550;2023-04-21T01:47:12;99055.17;;;11.01;86.81
37066;BME280;22981;43.080;25.550;2023-04-21T01:49:40;99057.86;;;11.01;86.81
37066;BME280;22981;43.080;25.550;2023-04-21T01:52:07;99055.67;;;11.00;86.84
37066;BME280;22981;43.080;25.550;2023-04-21T01:54:35;99054.86;;;11.00;86.84
37066;BME280;22981;43.080;25.550;2023-04-21T01:57:03;99051.90;;;10.99;86.90
37066;BME280;22981;43.080;25.550;2023-04-21T01:59:31;99055.92;;;10.99;86.85
37066;BME280;22981;43.080;25.550;2023-04-21T02:01:58;99050.97;;;10.93;86.90
37066;BME280;22981;43.080;25.550;2023-04-21T02:04:26;99047.70;;;10.91;87.07
37066;BME280;22981;43.080;25.550;2023-04-21T02:06:53;99043.16;;;10.92;87.02
37066;BME280;22981;43.080;25.550;2023-04-21T02:09:21;99042.22;;;10.86;86.94
37066;BME280;22981;43.080;25.550;2023-04-21T02:11:49;99035.48;;;10.84;87.11
37066;BME280;22981;43.080;25.550;2023-04-21T02:14:16;99037.64;;;10.84;87.06
37066;BME280;22981;43.080;25.550;2023-04-21T02:16:44;99034.89;;;10.82;87.07
37066;BME280;22981;43.080;25.550;2023-04-21T02:19:12;99026.57;;;10.81;87.10
37066;BME280;22981;43.080;25.550;2023-04-21T02:21:39;99032.14;;;10.79;87.12
37066;BME280;22981;43.080;25.550;2023-04-21T02:24:07;99029.17;;;10.78;87.09
37066;BME280;22981;43.080;25.550;2023-04-21T02:26:35;99031.28;;;10.76;87.15
37066;BME280;22981;43.080;25.550;2023-04-21T02:29:02;99031.56;;;10.77;87.16
37066;BME280;22981;43.080;25.550;2023-04-21T02:31:30;99028.08;;;10.76;87.16
37066;BME280;22981;43.080;25.550;2023-04-21T02:33:57;99026.14;;;10.74;87.20
37066;BME280;22981;43.080;25.550;2023-04-21T02:36:25;99033.44;;;10.76;87.21
37066;BME280;22981;43.080;25.550;2023-04-21T02:38:53;99023.42;;;10.72;87.20
37066;BME280;22981;43.080;25.550;2023-04-21T02:41:20;99026.63;;;10.71;87.30
37066;BME280;22981;43.080;25.550;2023-04-21T02:43:49;99023.34;;;10.69;87.27
37066;BME280;22981;43.080;25.550;2023-04-21T02:46:17;99026.55;;;10.69;87.27
37066;BME280;22981;43.080;25.550;2023-04-21T02:48:44;99029.11;;;10.64;87.34
37066;BME280;22981;43.080;25.550;2023-04-21T02:51:13;99026.96;;;10.63;87.47
37066;BME280;22981;43.080;25.550;2023-04-21T02:53:41;99029.39;;;10.65;87.52
37066;BME280;22981;43.080;25.550;2023-04-21T02:56:09;99033.20;;;10.66;87.45
37066;BME280;22981;43.080;25.550;2023-04-21T02:58:36;99032.43;;;10.68;87.44
37066;BME280;22981;43.080;25.550;2023-04-21T03:01:04;99029.75;;;10.68;87.30
37066;BME280;22981;43.080;25.550;2023-04-21T03:03:32;99021.89;;;10.64;87.42
37066;BME280;22981;43.080;25.550;2023-04-21T03:06:01;99029.19;;;10.66;87.52
37066;BME280;22981;43.080;25.550;2023-04-21T03:08:30;99029.11;;;10.64;87.48
37066;BME280;22981;43.080;25.550;2023-04-21T03:10:59;99024.81;;;10.63;87.45
37066;BME280;22981;43.080;25.550;2023-04-21T03:13:26;99028.47;;;10.59;87.51
37066;BME280;22981;43.080;25.550;2023-04-21T03:15:54;99022.98;;;10.54;87.72
37066;BME280;22981;43.080;25.550;2023-04-21T03:18:22;99024.90;;;10.56;87.75
37066;BME280;22981;43.080;25.550;2023-04-21T03:20:50;99024.66;;;10.58;87.82
37066;BME280;22981;43.080;25.550;2023-04-21T03:23:18;99023.03;;;10.57;87.78
37066;BME280;22981;43.080;25.550;2023-04-21T03:25:45;99025.50;;;10.58;87.84
37066;BME280;22981;43.080;25.550;2023-04-21T03:28:13;99023.64;;;10.59;87.77
37066;BME280;22981;43.080;25.550;2023-04-21T03:30:42;99027.41;;;10.60;87.78
37066;BME280;22981;43.080;25.550;2023-04-21T03:33:09;99029.03;;;10.61;87.66
37066;BME280;22981;43.080;25.550;2023-04-21T03:35:37;99038.19;;;10.63;87.68
37066;BME280;22981;43.080;25.550;2023-04-21T03:38:04;99041.84;;;10.59;87.56
37066;BME280;22981;43.080;25.550;2023-04-21T03:40:32;99041.77;;;10.57;87.71
37066;BME280;22981;43.080;25.550;2023-04-21T03:42:59;99047.08;;;10.54;87.85
37066;BME280;22981;43.080;25.550;2023-04-21T03:45:27;99050.57;;;10.55;87.92
37066;BME280;22981;43.080;25.550;2023-04-21T03:47:55;99053.53;;;10.56;87.87
37066;BME280;22981;43.080;25.550;2023-04-21T03:50:22;99044.09;;;10.53;87.87
37066;BME280;22981;43.080;25.550;2023-04-21T03:52:50;99048.70;;;10.55;87.90
37066;BME280;22981;43.080;25.550;2023-04-21T03:55:17;99051.14;;;10.57;87.80
37066;BME280;22981;43.080;25.550;2023-04-21T03:57:45;99051.95;;;10.57;87.81
37066;BME280;22981;43.080;25.550;2023-04-21T04:00:13;99056.78;;;10.58;87.70
37066;BME280;22981;43.080;25.550;2023-04-21T04:02:40;99057.02;;;10.56;87.80
37066;BME280;22981;43.080;25.550;2023-04-21T04:05:08;99059.70;;;10.56;87.83
37066;BME280;22981;43.080;25.550;2023-04-21T04:07:36;99062.66;;;10.57;87.86
37066;BME280;22981;43.080;25.550;2023-04-21T04:10:04;99058.80;;;10.53;87.81
37066;BME280;22981;43.080;25.550;2023-04-21T04:12:31;99066.27;;;10.51;88.05
37066;BME280;22981;43.080;25.550;2023-04-21T04:14:59;99064.48;;;10.54;88.10
37066;BME280;22981;43.080;25.550;2023-04-21T04:17:27;99072.50;;;10.54;88.06
37066;BME280;22981;43.080;25.550;2023-04-21T04:19:54;99074.13;;;10.55;88.15
37066;BME280;22981;43.080;25.550;2023-04-21T04:22:22;99076.12;;;10.60;88.19
37066;BME280;22981;43.080;25.550;2023-04-21T04:24:49;99077.30;;;10.64;88.07
37066;BME280;22981;43.080;25.550;2023-04-21T04:27:18;99078.63;;;10.64;88.00
37066;BME280;22981;43.080;25.550;2023-04-21T04:29:46;99083.75;;;10.65;87.93
37066;BME280;22981;43.080;25.550;2023-04-21T04:32:15;99086.06;;;10.62;87.97
37066;BME280;22981;43.080;25.550;2023-04-21T04:34:43;99080.95;;;10.60;88.05
37066;BME280;22981;43.080;25.550;2023-04-21T04:37:11;99084.44;;;10.61;88.03
37066;BME280;22981;43.080;25.550;2023-04-21T04:39:39;99087.23;;;10.66;88.05
37066;BME280;22981;43.080;25.550;2023-04-21T04:42:12;99088.73;;;10.71;87.91
37066;BME280;22981;43.080;25.550;2023-04-21T04:44:45;99087.52;;;10.76;87.74
37066;BME280;22981;43.080;25.550;2023-04-21T04:47:14;99084.34;;;10.79;87.60
37066;BME280;22981;43.080;25.550;2023-04-21T04:49:42;99086.30;;;10.81;87.56
37066;BME280;22981;43.080;25.550;2023-04-21T04:52:09;99086.58;;;10.82;87.64
37066;BME280;22981;43.080;25.550;2023-04-21T04:54:37;99089.05;;;10.84;87.69
37066;BME280;22981;43.080;25.550;2023-04-21T04:57:04;99088.88;;;10.88;87.71
37066;BME280;22981;43.080;25.550;2023-04-21T04:59:32;99086.53;;;10.91;87.74
37066;BME280;22981;43.080;25.550;2023-04-21T05:02:02;99084.81;;;10.97;87.77
37066;BME280;22981;43.080;25.550;2023-04-21T05:04:33;99091.66;;;11.04;87.75
37066;BME280;22981;43.080;25.550;2023-04-21T05:07:00;99091.40;;;11.15;87.68
37066;BME280;22981;43.080;25.550;2023-04-21T05:09:28;99092.44;;;11.26;87.48
37066;BME280;22981;43.080;25.550;2023-04-21T05:11:56;99086.55;;;11.38;87.29
37066;BME280;22981;43.080;25.550;2023-04-21T05:14:23;99094.84;;;11.48;87.03
37066;BME280;22981;43.080;25.550;2023-04-21T05:16:51;99091.17;;;11.52;86.87
37066;BME280;22981;43.080;25.550;2023-04-21T05:19:19;99095.64;;;11.61;86.82
37066;BME280;22981;43.080;25.550;2023-04-21T05:21:46;99097.36;;;11.78;86.65
37066;BME280;22981;43.080;25.550;2023-04-21T05:24:14;99095.25;;;11.92;86.11
37066;BME280;22981;43.080;25.550;2023-04-21T05:26:41;99089.71;;;12.11;85.56
37066;BME280;22981;43.080;25.550;2023-04-21T05:29:09;99095.41;;;12.28;84.77
37066;BME280;22981;43.080;25.550;2023-04-21T05:31:36;99088.22;;;12.46;84.06
37066;BME280;22981;43.080;25.550;2023-04-21T05:34:04;99092.81;;;12.62;83.17
37066;BME280;22981;43.080;25.550;2023-04-21T05:36:32;99095.49;;;12.76;82.45
37066;BME280;22981;43.080;25.550;2023-04-21T05:38:59;99096.27;;;12.91;81.80
37066;BME280;22981;43.080;25.550;2023-04-21T05:41:27;99097.28;;;13.04;81.42
37066;BME280;22981;43.080;25.550;2023-04-21T05:43:55;99096.93;;;13.15;80.70
37066;BME280;22981;43.080;25.550;2023-04-21T05:46:22;99095.86;;;13.16;80.09
37066;BME280;22981;43.080;25.550;2023-04-21T05:48:50;99105.27;;;13.16;79.88
37066;BME280;22981;43.080;25.550;2023-04-21T05:51:17;99101.49;;;13.15;79.76
37066;BME280;22981;43.080;25.550;2023-04-21T05:53:45;99099.56;;;13.13;79.61
37066;BME280;22981;43.080;25.550;2023-04-21T05:56:13;99099.21;;;13.07;79.28
37066;BME280;22981;43.080;25.550;2023-04-21T05:58:40;99104.25;;;13.03;79.21
37066;BME280;22981;43.080;25.550;2023-04-21T06:01:08;99098.80;;;12.98;79.20
37066;BME280;22981;43.080;25.550;2023-04-21T06:03:36;99104.94;;;12.96;79.21
37066;BME280;22981;43.080;25.550;2023-04-21T06:06:04;99093.63;;;12.94;79.07
37066;BME280;22981;43.080;25.550;2023-04-21T06:08:32;99102.53;;;12.97;78.85
37066;BME280;22981;43.080;25.550;2023-04-21T06:11:00;99103.67;;;13.01;78.76
37066;BME280;22981;43.080;25.550;2023-04-21T06:13:28;99104.86;;;13.08;78.67
37066;BME280;22981;43.080;25.550;2023-04-21T06:15:55;99105.42;;;13.10;78.41
37066;BME280;22981;43.080;25.550;2023-04-21T06:18:25;99109.76;;;13.11;77.98
37066;BME280;22981;43.080;25.550;2023-04-21T06:20:53;99111.38;;;13.12;77.83
37066;BME280;22981;43.080;25.550;2023-04-21T06:23:21;99103.59;;;13.13;77.60
37066;BME280;22981;43.080;25.550;2023-04-21T06:26:04;99110.11;;;13.17;77.22
37066;BME280;22981;43.080;25.550;2023-04-21T06:28:33;99107.75;;;13.20;77.18
37066;BME280;22981;43.080;25.550;2023-04-21T06:31:02;99115.06;;;13.22;77.04
37066;BME280;22981;43.080;25.550;2023-04-21T06:33:30;99109.20;;;13.25;77.04
37066;BME280;22981;43.080;25.550;2023-04-21T06:35:57;99115.97;;;13.28;77.02
37066;BME280;22981;43.080;25.550;2023-04-21T06:38:25;99118.41;;;13.30;76.89
37066;BME280;22981;43.080;25.550;2023-04-21T06:40:52;99116.58;;;13.33;76.74
37066;BME280;22981;43.080;25.550;2023-04-21T06:43:20;99119.08;;;13.39;76.57
37066;BME280;22981;43.080;25.550;2023-04-21T06:45:48;99120.01;;;13.47;76.13
37066;BME280;22981;43.080;25.550;2023-04-21T06:48:15;99121.42;;;13.52;75.58
37066;BME280;22981;43.080;25.550;2023-04-21T06:50:43;99131.97;;;13.57;75.22
37066;BME280;22981;43.080;25.550;2023-04-21T06:53:11;99136.86;;;13.60;75.20
37066;BME280;22981;43.080;25.550;2023-04-21T06:55:39;99132.03;;;13.62;74.99
37066;BME280;22981;43.080;25.550;2023-04-21T06:58:06;99133.22;;;13.68;74.94
37066;BME280;22981;43.080;25.550;2023-04-21T07:00:34;99139.80;;;13.77;74.79
37066;BME280;22981;43.080;25.550;2023-04-21T07:03:02;99135.88;;;13.85;74.78
37066;BME280;22981;43.080;25.550;2023-04-21T07:05:29;99137.28;;;13.90;74.77
37066;BME280;22981;43.080;25.550;2023-04-21T07:07:57;99138.14;;;13.93;74.92
37066;BME280;22981;43.080;25.550;2023-04-21T07:10:28;99145.45;;;13.98;74.94
37066;BME280;22981;43.080;25.550;2023-04-21T07:12:55;99151.38;;;13.97;74.94
37066;BME280;22981;43.080;25.550;2023-04-21T07:15:23;99156.17;;;13.95;74.91
37066;BME280;22981;43.080;25.550;2023-04-21T07:17:51;99155.89;;;13.92;74.80
37066;BME280;22981;43.080;25.550;2023-04-21T07:20:18;99160.14;;;13.88;74.61
37066;BME280;22981;43.080;25.550;2023-04-21T07:22:46;99156.60;;;13.87;74.34
37066;BME280;22981;43.080;25.550;2023-04-21T07:25:13;99155.58;;;13.91;74.11
37066;BME280;22981;43.080;25.550;2023-04-21T07:27:41;99160.22;;;13.95;73.92
37066;BME280;22981;43.080;25.550;2023-04-21T07:30:09;99160.30;;;14.00;73.74
37066;BME280;22981;43.080;25.550;2023-04-21T07:32:36;99159.30;;;14.07;73.48
37066;BME280;22981;43.080;25.550;2023-04-21T07:35:05;99164.51;;;14.13;73.28
37066;BME280;22981;43.080;25.550;2023-04-21T07:37:32;99160.22;;;14.17;72.79
37066;BME280;22981;43.080;25.550;2023-04-21T07:40:00;99159.99;;;14.19;72.31
37066;BME280;22981;43.080;25.550;2023-04-21T07:42:28;99164.42;;;14.30;72.29
37066;BME280;22981;43.080;25.550;2023-04-21T07:44:56;99167.64;;;14.49;71.70
37066;BME280;22981;43.080;25.550;2023-04-21T07:47:25;99167.61;;;14.71;71.09
37066;BME280;22981;43.080;25.550;2023-04-21T07:49:53;99167.55;;;14.90;70.83
37066;BME280;22981;43.080;25.550;2023-04-21T07:52:21;99168.86;;;15.17;70.63
37066;BME280;22981;43.080;25.550;2023-04-21T07:54:50;99166.94;;;15.47;70.39
37066;BME280;22981;43.080;25.550;2023-04-21T07:57:24;99174.59;;;15.61;70.03
37066;BME280;22981;43.080;25.550;2023-04-21T07:59:52;99168.98;;;15.65;69.46
37066;BME280;22981;43.080;25.550;2023-04-21T08:02:19;99171.38;;;15.64;68.99
37066;BME280;22981;43.080;25.550;2023-04-21T08:04:47;99183.34;;;15.75;68.56
37066;BME280;22981;43.080;25.550;2023-04-21T08:07:14;99184.44;;;15.80;67.72
37066;BME280;22981;43.080;25.550;2023-04-21T08:09:42;99177.91;;;15.70;67.37
37066;BME280;22981;43.080;25.550;2023-04-21T08:12:09;99178.63;;;15.61;67.27
37066;BME280;22981;43.080;25.550;2023-04-21T08:14:38;99178.30;;;15.52;67.48
37066;BME280;22981;43.080;25.550;2023-04-21T08:17:05;99181.48;;;15.44;67.79
37066;BME280;22981;43.080;25.550;2023-04-21T08:19:33;99179.05;;;15.42;68.32
37066;BME280;22981;43.080;25.550;2023-04-21T08:22:01;99187.38;;;15.38;68.48
37066;BME280;22981;43.080;25.550;2023-04-21T08:24:28;99189.16;;;15.27;68.40
37066;BME280;22981;43.080;25.550;2023-04-21T08:26:56;99194.20;;;15.16;68.60
37066;BME280;22981;43.080;25.550;2023-04-21T08:29:23;99204.34;;;15.07;68.92
37066;BME280;22981;43.080;25.550;2023-04-21T08:31:51;99200.83;;;15.03;69.04
37066;BME280;22981;43.080;25.550;2023-04-21T08:34:18;99203.22;;;15.00;69.21
37066;BME280;22981;43.080;25.550;2023-04-21T08:36:46;99204.25;;;14.96;69.17
37066;BME280;22981;43.080;25.550;2023-04-21T08:39:16;99210.14;;;14.91;69.22
37066;BME280;22981;43.080;25.550;2023-04-21T08:41:44;99200.93;;;14.87;69.29
37066;BME280;22981;43.080;25.550;2023-04-21T08:44:12;99205.97;;;14.81;69.35
37066;BME280;22981;43.080;25.550;2023-04-21T08:46:42;99210.23;;;14.76;69.50
37066;BME280;22981;43.080;25.550;2023-04-21T08:49:12;99213.95;;;14.70;69.55
37066;BME280;22981;43.080;25.550;2023-04-21T08:51:41;99206.00;;;14.59;69.55
37066;BME280;22981;43.080;25.550;2023-04-21T08:54:09;99205.91;;;14.51;69.56
37066;BME280;22981;43.080;25.550;2023-04-21T08:56:38;99207.16;;;14.46;69.83
37066;BME280;22981;43.080;25.550;2023-04-21T08:59:06;99211.19;;;14.43;70.06
37066;BME280;22981;43.080;25.550;2023-04-21T09:02:04;99217.09;;;14.43;70.22
37066;BME280;22981;43.080;25.550;2023-04-21T09:04:17;99215.73;;;14.40;70.45
37066;BME280;22981;43.080;25.550;2023-04-21T09:06:45;99208.73;;;14.42;70.77
37066;BME280;22981;43.080;25.550;2023-04-21T09:09:12;99212.77;;;14.42;70.89
37066;BME280;22981;43.080;25.550;2023-04-21T09:11:53;99211.16;;;14.41;70.93
37066;BME280;22981;43.080;25.550;2023-04-21T09:14:14;99212.45;;;14.38;71.03
37066;BME280;22981;43.080;25.550;2023-04-21T09:16:58;99212.08;;;14.29;71.05
37066;BME280;22981;43.080;25.550;2023-04-21T09:19:18;99216.27;;;14.20;71.26
37066;BME280;22981;43.080;25.550;2023-04-21T09:21:45;99217.81;;;14.14;71.46
37066;BME280;22981;43.080;25.550;2023-04-21T09:24:13;99209.86;;;14.04;71.75
37066;BME280;22981;43.080;25.550;2023-04-21T09:26:42;99215.92;;;13.95;72.27
37066;BME280;22981;43.080;25.550;2023-04-21T09:29:09;99221.44;;;13.86;72.70
37066;BME280;22981;43.080;25.550;2023-04-21T09:31:37;99213.02;;;13.80;73.17
37066;BME280;22981;43.080;25.550;2023-04-21T09:34:15;99217.01;;;13.77;73.60
37066;BME280;22981;43.080;25.550;2023-04-21T09:36:35;99218.84;;;13.74;73.87
37066;BME280;22981;43.080;25.550;2023-04-21T09:39:03;99216.66;;;13.71;74.09
37066;BME280;22981;43.080;25.550;2023-04-21T09:41:32;99219.05;;;13.70;74.22
37066;BME280;22981;43.080;25.550;2023-04-21T09:44:00;99217.42;;;13.69;74.49
37066;BME280;22981;43.080;25.550;2023-04-21T09:46:31;99219.30;;;13.68;74.73
37066;BME280;22981;43.080;25.550;2023-04-21T09:49:03;99180.52;;;13.47;74.87
37066;BME280;22981;43.080;25.550;2023-04-21T09:51:31;99216.36;;;13.70;74.90
37066;BME280;22981;43.080;25.550;2023-04-21T09:54:00;99209.95;;;13.73;74.99
37066;BME280;22981;43.080;25.550;2023-04-21T09:56:31;99214.32;;;13.77;74.90
37066;BME280;22981;43.080;25.550;2023-04-21T09:59:01;99211.42;;;13.81;74.87
37066;BME280;22981;43.080;25.550;2023-04-21T10:01:30;99209.41;;;13.91;74.95
37066;BME280;22981;43.080;25.550;2023-04-21T10:03:58;99205.20;;;13.97;74.87
37066;BME280;22981;43.080;25.550;2023-04-21T10:06:25;99202.63;;;14.05;74.77
37066;BME280;22981;43.080;25.550;2023-04-21T10:08:54;99206.46;;;14.12;74.69
37066;BME280;22981;43.080;25.550;2023-04-21T10:11:23;99201.72;;;14.19;74.60
37066;BME280;22981;43.080;25.550;2023-04-21T10:13:51;99192.91;;;14.26;74.45
37066;BME280;22981;43.080;25.550;2023-04-21T10:16:19;99195.47;;;14.35;74.11
37066;BME280;22981;43.080;25.550;2023-04-21T10:18:48;99193.97;;;14.47;73.58
37066;BME280;22981;43.080;25.550;2023-04-21T10:21:18;99193.12;;;14.63;73.16
37066;BME280;22981;43.080;25.550;2023-04-21T10:23:49;99191.72;;;14.83;72.84
37066;BME280;22981;43.080;25.550;2023-04-21T10:26:24;99186.08;;;15.14;72.38
37066;BME280;22981;43.080;25.550;2023-04-21T10:31:48;99182.08;;;16.48;70.08
37066;BME280;22981;43.080;25.550;2023-04-21T10:42:19;99173.86;;;17.47;66.34
37066;BME280;22981;43.080;25.550;2023-04-21T10:45:00;99174.95;;;17.82;65.92
37066;BME280;22981;43.080;25.550;2023-04-21T10:47:39;99173.30;;;17.81;65.46
37066;BME280;22981;43.080;25.550;2023-04-21T10:50:20;99169.78;;;17.67;65.45
37066;BME280;22981;43.080;25.550;2023-04-21T10:53:11;99137.57;;;17.73;65.31
37066;BME280;22981;43.080;25.550;2023-04-21T10:55:36;99138.91;;;17.81;64.44
37066;BME280;22981;43.080;25.550;2023-04-21T10:58:07;99162.75;;;17.76;64.79
37066;BME280;22981;43.080;25.550;2023-04-21T11:00:36;99164.66;;;17.58;65.51
37066;BME280;22981;43.080;25.550;2023-04-21T11:03:06;99168.19;;;17.46;65.64
37066;BME280;22981;43.080;25.550;2023-04-21T11:05:36;99170.11;;;17.30;65.63
37066;BME280;22981;43.080;25.550;2023-04-21T11:08:12;99172.52;;;17.19;65.93
37066;BME280;22981;43.080;25.550;2023-04-21T11:10:52;99164.95;;;17.18;65.82
37066;BME280;22981;43.080;25.550;2023-04-21T11:13:24;99174.95;;;17.10;66.01
37066;BME280;22981;43.080;25.550;2023-04-21T11:21:14;99166.31;;;17.18;66.16
37066;BME280;22981;43.080;25.550;2023-04-21T11:23:39;99162.78;;;17.33;65.81
37066;BME280;22981;43.080;25.550;2023-04-21T11:26:07;99158.95;;;17.67;64.94
37066;BME280;22981;43.080;25.550;2023-04-21T11:28:35;99157.27;;;18.02;64.41
37066;BME280;22981;43.080;25.550;2023-04-21T11:31:03;99153.12;;;18.30;64.05
37066;BME280;22981;43.080;25.550;2023-04-21T11:33:36;99151.64;;;18.53;63.13
37066;BME280;22981;43.080;25.550;2023-04-21T11:36:07;99149.70;;;18.64;62.68
37066;BME280;22981;43.080;25.550;2023-04-21T11:38:39;99151.73;;;18.87;62.01
37066;BME280;22981;43.080;25.550;2023-04-21T11:41:07;99152.95;;;19.10;61.98
37066;BME280;22981;43.080;25.550;2023-04-21T11:43:36;99149.19;;;19.35;61.47
37066;BME280;22981;43.080;25.550;2023-04-21T11:49:02;99145.61;;;19.40;60.27
37066;BME280;22981;43.080;25.550;2023-04-21T11:51:37;99144.36;;;18.95;60.50
37066;BME280;22981;43.080;25.550;2023-04-21T11:54:07;99145.12;;;18.57;60.75
37066;BME280;22981;43.080;25.550;2023-04-21T11:56:36;99138.16;;;18.43;61.25
37066;BME280;22981;43.080;25.550;2023-04-21T11:59:08;99144.63;;;18.47;60.64
37066;BME280;22981;43.080;25.550;2023-04-21T12:01:43;99140.98;;;18.67;60.61
37066;BME280;22981;43.080;25.550;2023-04-21T12:04:18;99136.69;;;18.63;60.69
37066;BME280;22981;43.080;25.550;2023-04-21T12:06:57;99137.89;;;18.37;61.05
37066;BME280;22981;43.080;25.550;2023-04-21T12:09:17;99142.77;;;18.40;60.99
37066;BME280;22981;43.080;25.550;2023-04-21T12:11:50;99144.70;;;18.34;60.04
37066;BME280;22981;43.080;25.550;2023-04-21T12:14:23;99137.86;;;18.44;59.95
37066;BME280;22981;43.080;25.550;2023-04-21T12:16:56;99139.58;;;18.80;59.07
37066;BME280;22981;43.080;25.550;2023-04-21T12:19:38;99139.70;;;19.01;57.88
37066;BME280;22981;43.080;25.550;2023-04-21T12:22:12;99141.09;;;18.98;57.45
37066;BME280;22981;43.080;25.550;2023-04-21T12:24:40;99135.29;;;18.73;57.10
37066;BME280;22981;43.080;25.550;2023-04-21T12:27:08;99130.83;;;18.43;57.49
37066;BME280;22981;43.080;25.550;2023-04-21T12:29:36;99137.20;;;18.16;57.77
37066;BME280;22981;43.080;25.550;2023-04-21T12:32:08;99132.66;;;17.96;58.41
37066;BME280;22981;43.080;25.550;2023-04-21T12:34:35;99131.36;;;17.78;58.57
37066;BME280;22981;43.080;25.550;2023-04-21T12:37:03;99131.63;;;17.59;58.94
37066;BME280;22981;43.080;25.550;2023-04-21T12:39:31;99131.38;;;17.50;59.12
37066;BME280;22981;43.080;25.550;2023-04-21T12:41:59;99133.00;;;17.38;58.81
37066;BME280;22981;43.080;25.550;2023-04-21T12:44:27;99132.22;;;17.27;58.58
37066;BME280;22981;43.080;25.550;2023-04-21T12:46:58;99131.67;;;17.15;58.62
37066;BME280;22981;43.080;25.550;2023-04-21T12:49:27;99132.50;;;17.13;59.23
37066;BME280;22981;43.080;25.550;2023-04-21T12:51:58;99132.77;;;17.14;59.62
37066;BME280;22981;43.080;25.550;2023-04-21T12:54:25;99133.58;;;17.22;59.92
37066;BME280;22981;43.080;25.550;2023-04-21T12:56:55;99133.00;;;17.38;59.75
37066;BME280;22981;43.080;25.550;2023-04-21T12:59:24;99129.20;;;17.57;58.96
37066;BME280;22981;43.080;25.550;2023-04-21T13:01:52;99130.02;;;17.50;57.70
37066;BME280;22981;43.080;25.550;2023-04-21T13:04:22;99129.23;;;17.39;57.57
37066;BME280;22981;43.080;25.550;2023-04-21T13:06:53;99132.75;;;17.32;57.85
37066;BME280;22981;43.080;25.550;2023-04-21T13:09:21;99137.91;;;17.26;58.33
37066;BME280;22981;43.080;25.550;2023-04-21T13:11:48;99143.86;;;17.18;58.25
37066;BME280;22981;43.080;25.550;2023-04-21T13:14:17;99142.50;;;17.05;58.27
37066;BME280;22981;43.080;25.550;2023-04-21T13:16:45;99135.47;;;16.96;58.14